Time;durP1;ratioP1;P1;durP2;ratioP2;P2;SDS_P1;SDS_P2;PMS_P1;PMS_P2;Temp;Humidity;BMP_temperature;BMP_pressure;BME280_temperature;BME280_humidity;BME280_pressure;Samples;Min_cycle;Max_cycle;Signal;HPM_P1;HPM_P2
2022/03/16 00:00:00;;;;;;;21.58;9.20;;;;;;;1.95;74.94;98111.72;5043665;28;20053;-58
2022/03/16 00:02:26;;;;;;;21.45;8.93;;;;;;;1.26;75.66;98023.94;5045370;28;20040;-58
2022/03/16 00:04:55;;;;;;;23.88;8.98;;;;;;;1.83;75.12;98118.69;5045393;28;20423;-54
2022/03/16 00:07:22;;;;;;;18.30;7.78;;;;;;;1.81;75.38;98120.88;5042600;28;20061;-54
2022/03/16 00:09:49;;;;;;;15.63;7.90;;;;;;;1.92;74.92;98108.75;5044911;28;20101;-59
2022/03/16 00:12:16;;;;;;;14.20;7.00;;;;;;;1.91;75.40;98107.97;5044978;28;20053;-59
2022/03/16 00:14:43;;;;;;;15.75;7.97;;;;;;;1.98;74.29;98099.38;5045223;28;20863;-54
2022/03/16 00:17:10;;;;;;;22.10;8.27;;;;;;;1.94;74.40;98098.34;5043534;28;20071;-55
2022/03/16 00:19:39;;;;;;;18.88;8.65;;;;;;;1.86;75.88;98088.88;5044669;28;20053;-58
2022/03/16 00:22:07;;;;;;;40.13;16.15;;;;;;;1.21;75.21;97980.31;5044761;28;20048;-58
2022/03/16 00:24:34;;;;;;;27.77;10.40;;;;;;;1.61;73.63;98044.63;5044516;28;20045;-55
2022/03/16 00:27:01;;;;;;;24.65;10.88;;;;;;;1.92;74.05;98120.50;5043087;28;20049;-59
2022/03/16 00:29:27;;;;;;;25.73;10.80;;;;;;;1.47;73.96;98049.97;5044421;28;20049;-58
2022/03/16 00:31:54;;;;;;;23.60;9.32;;;;;;;1.90;74.03;98094.59;5042948;28;20056;-58
2022/03/16 00:34:21;;;;;;;23.30;10.70;;;;;;;1.92;73.75;98100.56;5044223;28;20495;-59
2022/03/16 00:36:47;;;;;;;19.30;8.93;;;;;;;1.80;73.58;98075.56;5044488;28;20131;-55
2022/03/16 00:39:14;;;;;;;16.05;8.48;;;;;;;1.96;73.71;98085.22;5044526;28;20063;-59
2022/03/16 00:41:41;;;;;;;22.30;9.27;;;;;;;1.83;74.37;98058.59;5045066;28;20057;-55
2022/03/16 00:44:08;;;;;;;25.05;9.55;;;;;;;1.77;74.99;98032.44;5044382;28;20057;-59
2022/03/16 00:46:36;;;;;;;28.98;10.55;;;;;;;1.89;76.02;98062.88;5044140;28;20525;-55
2022/03/16 00:49:04;;;;;;;23.75;8.15;;;;;;;1.40;76.28;97994.88;5044023;28;20057;-57
2022/03/16 00:51:31;;;;;;;18.15;7.75;;;;;;;1.96;75.30;98046.97;5042601;28;20053;-56
2022/03/16 00:53:58;;;;;;;17.45;6.53;;;;;;;2.06;75.13;98050.41;5042341;28;20206;-58
2022/03/16 00:56:24;;;;;;;18.40;7.28;;;;;;;1.94;76.03;98060.94;5043715;28;20053;-59
2022/03/16 00:58:51;;;;;;;17.17;6.72;;;;;;;1.92;76.09;98051.38;5043997;28;20056;-58
2022/03/16 01:01:18;;;;;;;16.23;6.28;;;;;;;1.64;75.76;97986.69;5043785;28;20534;-57
2022/03/16 01:03:45;;;;;;;18.35;7.47;;;;;;;1.80;74.49;98004.53;5028838;28;20118;-58
2022/03/16 01:06:20;;;;;;;20.15;8.02;;;;;;;2.03;75.31;98026.41;5055739;28;20057;-58
2022/03/16 01:08:47;;;;;;;21.13;8.02;;;;;;;1.47;75.52;97933.38;5055934;28;20049;-55
2022/03/16 01:11:14;;;;;;;15.50;7.28;;;;;;;1.93;73.75;97982.00;5055710;28;20524;-59
2022/03/16 01:13:42;;;;;;;17.70;7.90;;;;;;;2.18;73.85;98011.72;5023872;28;20056;-55
2022/03/16 01:16:09;;;;;;;21.80;10.07;;;;;;;2.04;73.36;97983.50;5023812;28;20060;-59
2022/03/16 01:18:36;;;;;;;23.80;10.95;;;;;;;2.09;73.89;98008.00;5023329;28;20535;-59
2022/03/16 01:21:07;;;;;;;25.60;10.45;;;;;;;2.02;74.05;97985.69;5055493;28;20053;-55
2022/03/16 01:23:35;;;;;;;22.05;10.07;;;;;;;1.88;74.57;97960.22;5023841;28;20425;-55
2022/03/16 01:26:03;;;;;;;19.25;9.23;;;;;;;1.98;73.66;97952.69;5024144;28;20592;-59
2022/03/16 01:28:31;;;;;;;24.15;9.80;;;;;;;2.10;73.30;97972.22;5055335;28;20084;-55
2022/03/16 01:30:59;;;;;;;24.08;10.75;;;;;;;2.33;72.32;97987.75;5023626;28;20049;-58
2022/03/16 01:33:27;;;;;;;23.40;10.10;;;;;;;2.33;72.56;97997.84;5023972;28;20148;-58
2022/03/16 01:35:54;;;;;;;15.65;7.65;;;;;;;2.24;72.90;97994.97;5023736;28;20053;-58
2022/03/16 01:38:21;;;;;;;22.25;9.02;;;;;;;1.83;72.87;97928.31;5055754;28;20064;-58
2022/03/16 01:40:47;;;;;;;18.08;8.93;;;;;;;2.32;72.74;97999.78;5054885;28;20050;-58
2022/03/16 01:43:14;;;;;;;26.30;10.70;;;;;;;2.36;72.82;98008.19;5023658;28;20068;-56
2022/03/16 01:45:48;;;;;;;19.98;9.68;;;;;;;2.40;73.38;97974.50;5023658;28;20059;-57
2022/03/16 01:48:15;;;;;;;21.98;9.98;;;;;;;2.30;72.66;97960.19;5055390;28;20045;-57
2022/03/16 01:50:42;;;;;;;23.45;9.55;;;;;;;2.52;72.50;97974.91;5023536;28;20401;-60
2022/03/16 01:53:10;;;;;;;19.67;8.93;;;;;;;2.59;73.05;97985.47;5023596;28;20050;-58
2022/03/16 01:55:41;;;;;;;19.92;9.15;;;;;;;2.61;73.21;97984.06;5024216;28;20057;-55
2022/03/16 01:58:11;;;;;;;23.73;9.10;;;;;;;2.10;73.06;97873.03;5024325;28;20428;-58
2022/03/16 02:00:41;;;;;;;19.90;7.78;;;;;;;2.54;72.63;97941.78;5023955;28;20053;-55
2022/03/16 02:03:08;;;;;;;20.10;8.40;;;;;;;2.40;73.46;97940.91;5032604;28;20092;-55
2022/03/16 02:05:36;;;;;;;24.20;8.60;;;;;;;2.45;73.38;97940.84;5043563;28;20124;-55
2022/03/16 02:08:08;;;;;;;19.25;9.50;;;;;;;2.41;73.88;97945.25;5043202;28;20061;-58
2022/03/16 02:10:35;;;;;;;24.40;8.88;;;;;;;2.35;74.31;97941.81;5043407;28;20063;-58
2022/03/16 02:13:02;;;;;;;22.13;8.95;;;;;;;2.33;74.39;97932.25;5043041;28;20064;-55
2022/03/16 02:15:29;;;;;;;21.83;8.98;;;;;;;2.33;73.69;97932.25;5043295;28;20059;-59
2022/03/16 02:17:56;;;;;;;20.73;8.35;;;;;;;2.18;74.83;97936.00;5043495;28;20421;-55
2022/03/16 02:20:24;;;;;;;21.73;8.52;;;;;;;1.85;73.35;97843.34;5041608;28;20049;-58
2022/03/16 02:22:52;;;;;;;15.10;6.78;;;;;;;2.22;73.92;97923.41;5043042;28;20056;-56
2022/03/16 02:25:20;;;;;;;17.77;8.23;;;;;;;2.27;74.26;97925.25;5042686;28;20056;-56
2022/03/16 02:27:47;;;;;;;17.70;7.45;;;;;;;1.93;73.59;97872.75;5041438;28;20049;-58
2022/03/16 02:30:14;;;;;;;21.08;8.57;;;;;;;2.22;74.18;97926.13;5043735;28;20053;-57
2022/03/16 02:32:41;;;;;;;23.52;8.65;;;;;;;1.93;73.70;97861.81;5046797;28;20065;-58
2022/03/16 02:35:08;;;;;;;19.20;8.82;;;;;;;2.38;73.01;97918.50;5045219;28;20044;-55
2022/03/16 02:37:37;;;;;;;19.80;7.68;;;;;;;2.03;73.05;97834.31;5046272;28;20053;-58
2022/03/16 02:40:06;;;;;;;19.35;7.97;;;;;;;2.50;71.58;97910.66;5045627;28;20220;-58
2022/03/16 02:42:34;;;;;;;24.52;9.68;;;;;;;2.46;72.49;97893.25;5029425;28;20057;-57
2022/03/16 02:45:01;;;;;;;21.70;8.10;;;;;;;2.50;72.12;97888.78;5047035;28;20060;-58
2022/03/16 02:47:28;;;;;;;19.10;8.57;;;;;;;2.40;72.21;97894.44;5046622;28;20053;-54
2022/03/16 02:49:55;;;;;;;31.48;12.13;;;;;;;2.41;72.08;97893.31;5046578;28;20057;-58
2022/03/16 02:52:22;;;;;;;32.00;12.50;;;;;;;2.36;72.01;97904.31;5046344;28;20140;-58
2022/03/16 02:54:49;;;;;;;23.83;10.52;;;;;;;2.49;72.06;97892.63;5046400;28;20061;-58
2022/03/16 02:57:16;;;;;;;20.65;10.18;;;;;;;2.44;72.10;97884.50;5044722;28;20061;-56
2022/03/16 02:59:43;;;;;;;27.92;11.25;;;;;;;2.46;71.91;97888.59;5045158;28;20052;-55
2022/03/16 03:02:11;;;;;;;25.85;9.77;;;;;;;2.31;71.94;97852.50;5045484;28;20413;-54
2022/03/16 03:04:39;;;;;;;20.77;8.88;;;;;;;2.49;71.89;97884.44;5026639;28;20064;-58
2022/03/16 03:07:06;;;;;;;22.02;9.95;;;;;;;2.39;71.97;97876.38;5026163;28;20447;-58
2022/03/16 03:09:33;;;;;;;25.15;9.63;;;;;;;1.91;72.68;97803.91;5057673;28;20049;-59
2022/03/16 03:12:01;;;;;;;30.13;12.52;;;;;;;2.44;73.21;97879.03;5026601;28;20147;-55
2022/03/16 03:14:29;;;;;;;26.02;10.88;;;;;;;2.08;73.57;97815.13;5025839;28;20140;-55
2022/03/16 03:16:57;;;;;;;30.98;12.00;;;;;;;2.05;73.55;97822.00;5025888;28;20065;-55
2022/03/16 03:19:24;;;;;;;36.33;13.68;;;;;;;2.36;74.26;97872.34;5025994;28;20041;-57
2022/03/16 03:21:51;;;;;;;47.80;17.92;;;;;;;2.38;74.21;97870.13;5025977;28;20054;-58
2022/03/16 03:24:18;;;;;;;43.03;14.98;;;;;;;2.28;74.90;97869.44;5025760;28;20507;-58
2022/03/16 03:26:44;;;;;;;38.15;13.88;;;;;;;2.36;74.85;97860.59;5025991;28;20517;-55
2022/03/16 03:29:11;;;;;;;28.15;12.05;;;;;;;1.55;74.53;97735.34;5026538;28;20374;-54
2022/03/16 03:31:38;;;;;;;26.67;10.00;;;;;;;2.24;73.91;97852.03;5025650;28;20049;-58
2022/03/16 03:34:05;;;;;;;19.13;8.35;;;;;;;2.41;74.00;97863.25;5025540;28;20547;-58
2022/03/16 03:36:32;;;;;;;18.98;7.97;;;;;;;2.34;74.49;97865.56;5025633;28;20060;-57
2022/03/16 03:38:59;;;;;;;11.80;6.38;;;;;;;2.38;74.27;97858.38;5025372;28;20050;-56
2022/03/16 03:41:26;;;;;;;19.17;6.30;;;;;;;2.30;74.03;97823.50;5024972;28;20056;-57
2022/03/16 03:43:53;;;;;;;18.65;7.50;;;;;;;2.40;74.26;97839.75;5025829;28;20054;-55
2022/03/16 03:46:19;;;;;;;13.55;6.72;;;;;;;2.39;74.47;97854.53;5025696;28;20057;-54
2022/03/16 03:48:46;;;;;;;30.73;11.60;;;;;;;2.39;73.37;97857.25;5056867;28;20497;-58
2022/03/16 03:51:13;;;;;;;31.92;11.60;;;;;;;2.30;73.97;97843.47;5026032;28;20435;-58
2022/03/16 03:53:40;;;;;;;29.20;10.60;;;;;;;2.30;74.40;97848.13;5025594;28;20050;-55
2022/03/16 03:56:07;;;;;;;24.95;10.25;;;;;;;1.90;75.30;97780.47;5025491;28;20080;-58
2022/03/16 03:58:34;;;;;;;24.00;9.88;;;;;;;2.40;74.10;97834.28;5025256;28;20068;-55
2022/03/16 04:01:03;;;;;;;24.75;9.55;;;;;;;2.38;73.76;97831.84;5025867;28;20435;-59
2022/03/16 04:03:31;;;;;;;23.80;10.52;;;;;;;2.38;73.78;97852.91;5036867;28;20139;-54
2022/03/16 04:05:59;;;;;;;16.90;7.30;;;;;;;1.81;73.51;97743.97;5043673;28;20143;-59
2022/03/16 04:08:25;;;;;;;12.15;6.05;;;;;;;2.30;74.19;97793.44;5043540;28;20527;-58
2022/03/16 04:10:52;;;;;;;16.25;6.22;;;;;;;2.34;74.62;97819.09;5043222;28;20052;-55
2022/03/16 04:13:19;;;;;;;26.63;12.63;;;;;;;2.20;74.41;97821.75;5045075;28;20057;-59
2022/03/16 04:15:45;;;;;;;33.83;14.50;;;;;;;2.00;73.69;97775.63;5045349;28;20056;-59
2022/03/16 04:18:12;;;;;;;20.90;9.88;;;;;;;2.34;73.45;97830.03;5043349;28;20053;-58
2022/03/16 04:20:39;;;;;;;23.80;9.88;;;;;;;2.15;73.69;97794.50;5043418;28;20076;-58
2022/03/16 04:23:05;;;;;;;21.13;8.45;;;;;;;2.29;73.93;97832.84;5044485;28;20049;-57
2022/03/16 04:25:32;;;;;;;24.25;10.20;;;;;;;2.35;73.49;97831.63;5045119;28;20610;-58
2022/03/16 04:27:59;;;;;;;24.23;10.48;;;;;;;2.37;73.87;97813.03;5044817;28;20055;-55
2022/03/16 04:30:26;;;;;;;19.48;8.93;;;;;;;2.35;74.17;97827.00;5044507;28;20492;-59
2022/03/16 04:32:52;;;;;;;24.63;9.02;;;;;;;2.41;74.61;97824.97;5044582;28;20052;-58
2022/03/16 04:35:20;;;;;;;22.35;9.70;;;;;;;2.42;75.00;97832.06;5042985;28;20045;-56
2022/03/16 04:37:48;;;;;;;21.13;9.30;;;;;;;1.94;74.07;97748.69;5044495;28;20622;-54
2022/03/16 04:40:14;;;;;;;20.95;9.38;;;;;;;2.28;74.48;97792.94;5044971;28;20053;-56
2022/03/16 04:42:41;;;;;;;38.75;15.65;;;;;;;2.34;73.97;97817.16;5044446;28;20056;-58
2022/03/16 04:45:09;;;;;;;37.80;15.23;;;;;;;2.48;74.43;97809.78;5042800;28;20796;-59
2022/03/16 04:47:36;;;;;;;27.10;10.77;;;;;;;1.18;75.12;97662.50;5042940;28;20067;-55
2022/03/16 04:50:05;;;;;;;31.55;10.52;;;;;;;1.80;75.11;97786.06;5044148;28;20045;-57
2022/03/16 04:52:32;;;;;;;48.97;16.20;;;;;;;2.47;74.75;97801.91;5042385;28;20443;-58
2022/03/16 04:54:59;;;;;;;40.42;16.92;;;;;;;2.11;74.88;97765.34;5044378;28;20456;-54
2022/03/16 04:57:25;;;;;;;26.30;10.63;;;;;;;2.42;75.31;97793.81;5042883;28;20143;-58
2022/03/16 04:59:52;;;;;;;39.67;15.93;;;;;;;2.48;75.08;97803.53;5044613;28;20045;-59
2022/03/16 05:02:19;;;;;;;46.80;17.40;;;;;;;2.44;74.78;97799.75;5044217;28;20049;-55
2022/03/16 05:04:45;;;;;;;46.67;16.42;;;;;;;2.38;75.44;97798.22;5042359;28;20527;-59
2022/03/16 05:07:12;;;;;;;41.60;17.10;;;;;;;2.43;76.01;97789.94;5043576;28;20114;-60
2022/03/16 05:09:39;;;;;;;79.93;26.23;;;;;;;2.57;74.69;97777.13;5042371;28;20049;-55
2022/03/16 05:12:07;;;;;;;35.25;15.07;;;;;;;2.55;74.34;97782.06;5041898;28;20053;-57
2022/03/16 05:14:33;;;;;;;41.15;17.42;;;;;;;2.04;74.27;97699.34;5043186;28;20534;-54
2022/03/16 05:17:00;;;;;;;53.60;21.20;;;;;;;2.56;73.98;97792.69;5043364;28;20053;-58
2022/03/16 05:19:28;;;;;;;60.92;21.63;;;;;;;2.67;73.62;97776.94;5042438;28;20053;-59
2022/03/16 05:21:55;;;;;;;54.83;23.00;;;;;;;2.28;73.37;97727.34;5042463;28;20339;-54
2022/03/16 05:24:22;;;;;;;57.83;24.98;;;;;;;2.81;73.24;97785.97;5043675;28;20061;-54
2022/03/16 05:26:52;;;;;;;69.00;25.95;;;;;;;2.45;72.32;97730.31;5042636;28;20057;-54
2022/03/16 05:29:19;;;;;;;54.72;21.10;;;;;;;2.81;72.58;97791.44;5042336;28;20057;-58
2022/03/16 05:31:46;;;;;;;55.80;21.77;;;;;;;2.20;73.15;97682.38;5043477;28;20506;-59
2022/03/16 05:34:12;;;;;;;53.40;21.85;;;;;;;2.73;73.48;97786.66;5043563;28;20435;-60
2022/03/16 05:36:39;;;;;;;54.10;22.83;;;;;;;2.47;73.19;97717.13;5043720;28;20127;-54
2022/03/16 05:39:06;;;;;;;59.10;20.45;;;;;;;2.66;73.03;97712.41;5043207;28;20056;-54
2022/03/16 05:41:32;;;;;;;33.42;14.50;;;;;;;2.80;73.70;97763.28;5043370;28;20049;-54
2022/03/16 05:43:59;;;;;;;46.90;15.77;;;;;;;2.56;73.92;97729.03;5041548;28;20432;-59
2022/03/16 05:46:26;;;;;;;57.00;25.23;;;;;;;2.57;73.60;97716.97;5042406;28;20059;-59
2022/03/16 05:48:53;;;;;;;70.38;20.73;;;;;;;2.91;73.67;97761.13;5043288;28;20075;-55
2022/03/16 05:51:19;;;;;;;55.88;21.35;;;;;;;2.94;74.11;97763.28;5041729;28;20526;-58
2022/03/16 05:53:46;;;;;;;57.55;21.83;;;;;;;2.91;73.95;97736.50;5043227;28;20064;-55
2022/03/16 05:56:12;;;;;;;59.28;26.70;;;;;;;2.53;73.96;97686.66;5043118;28;20053;-56
2022/03/16 05:58:39;;;;;;;89.53;34.88;;;;;;;3.09;73.55;97776.66;5041340;28;20052;-59
2022/03/16 06:01:06;;;;;;;92.40;34.95;;;;;;;2.88;73.52;97748.88;5041174;28;20053;-55
2022/03/16 06:03:33;;;;;;;104.65;41.05;;;;;;;3.15;72.85;97778.16;5043055;28;20059;-55
2022/03/16 06:06:00;;;;;;;90.82;39.15;;;;;;;3.06;73.28;97775.34;5044034;28;20060;-54
2022/03/16 06:08:27;;;;;;;102.18;41.85;;;;;;;3.14;73.83;97776.56;5046920;28;20045;-56
2022/03/16 06:10:54;;;;;;;107.82;46.92;;;;;;;3.17;73.66;97794.28;5047471;28;20053;-55
2022/03/16 06:13:21;;;;;;;115.20;51.97;;;;;;;3.36;72.41;97786.78;5047283;28;20413;-59
2022/03/16 06:15:48;;;;;;;128.02;53.80;;;;;;;3.30;71.62;97763.38;5045909;28;20049;-59
2022/03/16 06:18:14;;;;;;;119.55;53.80;;;;;;;3.45;71.54;97780.28;5045756;28;20049;-59
2022/03/16 06:20:41;;;;;;;116.20;54.83;;;;;;;3.42;71.47;97775.41;5046785;28;20057;-59
2022/03/16 06:23:08;;;;;;;110.43;52.45;;;;;;;3.49;71.69;97764.88;5045573;28;20071;-60
2022/03/16 06:25:39;;;;;;;118.22;54.70;;;;;;;3.50;70.91;97752.78;5046536;28;20082;-59
2022/03/16 06:28:06;;;;;;;110.43;48.40;;;;;;;3.59;70.91;97753.66;5046512;28;20044;-59
2022/03/16 06:30:32;;;;;;;103.68;43.47;;;;;;;3.64;70.62;97748.09;5046435;28;20079;-54
2022/03/16 06:32:59;;;;;;;78.32;39.25;;;;;;;3.70;70.73;97744.09;5046815;28;20061;-55
2022/03/16 06:35:27;;;;;;;72.65;34.92;;;;;;;3.42;70.30;97715.19;5046726;28;20053;-59
2022/03/16 06:37:54;;;;;;;63.65;28.42;;;;;;;3.89;70.24;97736.53;5046397;28;20067;-54
2022/03/16 06:40:21;;;;;;;67.68;25.85;;;;;;;4.02;69.48;97743.06;5046961;28;20048;-55
2022/03/16 06:42:53;;;;;;;45.42;17.98;;;;;;;4.12;68.40;97735.44;5045615;28;20049;-57
2022/03/16 06:45:21;;;;;;;29.40;13.87;;;;;;;4.28;67.50;97739.38;5046718;28;20068;-55
2022/03/16 06:47:48;;;;;;;28.77;13.00;;;;;;;3.73;67.50;97644.84;5044897;28;20049;-58
2022/03/16 06:50:16;;;;;;;23.35;11.32;;;;;;;4.63;66.48;97740.44;5045005;28;20060;-54
2022/03/16 06:52:42;;;;;;;38.25;14.90;;;;;;;4.77;66.18;97743.06;5046122;28;20048;-54
2022/03/16 06:55:09;;;;;;;34.15;14.77;;;;;;;5.03;65.28;97742.03;5046313;28;20059;-60
2022/03/16 06:57:36;;;;;;;34.60;15.23;;;;;;;5.02;63.64;97714.91;5045038;28;20163;-55
2022/03/16 07:00:05;;;;;;;45.28;20.00;;;;;;;5.29;62.98;97736.63;5046164;28;20086;-54
2022/03/16 07:02:50;;;;;;;42.38;20.35;;;;;;;5.35;62.89;97718.88;5046184;28;20049;-60
2022/03/16 07:05:17;;;;;;;52.95;21.75;;;;;;;5.59;62.10;97746.72;5038126;28;20063;-60
2022/03/16 07:07:48;;;;;;;54.40;21.50;;;;;;;5.79;61.02;97751.59;5046116;28;20057;-60
2022/03/16 07:10:14;;;;;;;39.42;16.33;;;;;;;5.37;59.75;97639.72;5046013;28;20064;-55
2022/03/16 07:12:41;;;;;;;47.28;17.73;;;;;;;5.91;58.90;97713.31;5038113;28;20463;-59
2022/03/16 07:15:09;;;;;;;40.50;15.82;;;;;;;6.07;59.78;97725.41;5044629;28;20472;-60
2022/03/16 07:17:35;;;;;;;26.42;12.18;;;;;;;6.21;59.05;97730.75;5044137;28;20045;-54
2022/03/16 07:20:04;;;;;;;22.73;12.07;;;;;;;6.39;58.41;97733.16;5044533;28;20064;-61
2022/03/16 07:22:30;;;;;;;43.38;17.45;;;;;;;6.55;57.29;97725.19;5044284;28;20045;-56
2022/03/16 07:25:17;;;;;;;38.42;14.63;;;;;;;6.27;57.47;97669.75;5045442;28;20060;-55
2022/03/16 07:27:44;;;;;;;30.50;16.13;;;;;;;6.44;56.14;97690.88;5042248;28;20068;-59
2022/03/16 07:30:10;;;;;;;40.70;18.20;;;;;;;6.59;57.02;97715.94;5042548;28;20060;-61
2022/03/16 07:32:39;;;;;;;61.50;25.90;;;;;;;6.75;59.83;97724.50;5042425;28;20051;-60
2022/03/16 07:35:09;;;;;;;47.38;19.80;;;;;;;6.08;64.57;97716.03;5044993;28;20053;-55
2022/03/16 07:37:37;;;;;;;53.50;22.65;;;;;;;6.44;63.58;97713.72;5023914;28;20057;-54
2022/03/16 07:40:04;;;;;;;50.83;25.15;;;;;;;6.48;61.28;97684.41;5032367;28;20049;-57
2022/03/16 07:42:34;;;;;;;49.67;24.80;;;;;;;6.66;59.25;97671.38;5044183;28;20057;-56
2022/03/16 07:45:00;;;;;;;47.88;20.85;;;;;;;6.91;58.83;97706.25;5043741;28;20053;-61
2022/03/16 07:47:27;;;;;;;49.30;21.88;;;;;;;6.76;59.72;97671.03;5043553;28;20143;-61
2022/03/16 07:50:05;;;;;;;35.47;19.02;;;;;;;5.73;68.02;97714.41;5044734;28;20380;-71
2022/03/16 07:52:32;;;;;;;43.80;21.60;;;;;;;4.95;70.20;97643.19;5043520;28;20060;-63
2022/03/16 07:54:59;;;;;;;53.75;24.30;;;;;;;5.52;69.29;97694.97;5044707;28;20472;-57
2022/03/16 07:57:26;;;;;;;41.22;21.30;;;;;;;6.08;67.57;97694.03;5040775;28;20052;-59
2022/03/16 07:59:52;;;;;;;40.08;18.42;;;;;;;6.39;65.82;97666.28;5043835;28;20441;-57
2022/03/16 08:02:19;;;;;;;42.65;18.05;;;;;;;6.66;64.30;97677.72;5043804;28;20136;-57
2022/03/16 08:04:46;;;;;;;47.97;18.40;;;;;;;7.05;63.13;97691.13;5040899;28;20404;-60
2022/03/16 08:07:13;;;;;;;42.80;18.30;;;;;;;6.29;66.91;97686.75;5041255;28;20507;-63
2022/03/16 08:09:40;;;;;;;44.10;19.77;;;;;;;6.82;66.66;97673.28;5043520;28;20561;-56
2022/03/16 08:12:07;;;;;;;39.38;18.00;;;;;;;7.30;64.92;97679.16;5035845;28;20049;-56
2022/03/16 08:14:33;;;;;;;35.08;18.45;;;;;;;7.55;62.01;97682.91;5041178;28;20060;-55
2022/03/16 08:17:00;;;;;;;39.95;17.38;;;;;;;7.60;61.36;97686.25;5040535;28;20055;-55
2022/03/16 08:19:27;;;;;;;49.08;17.65;;;;;;;6.87;61.26;97557.44;5042601;28;20516;-56
2022/03/16 08:21:54;;;;;;;59.75;18.58;;;;;;;7.31;61.04;97644.16;5041553;28;20427;-56
2022/03/16 08:24:20;;;;;;;38.67;14.27;;;;;;;7.32;60.09;97619.03;5043902;28;20057;-56
2022/03/16 08:27:07;;;;;;;25.02;11.30;;;;;;;7.80;57.02;97667.28;5041740;28;20443;-56
2022/03/16 08:29:34;;;;;;;27.70;10.65;;;;;;;7.40;55.25;97615.41;5032768;28;20349;-55
2022/03/16 08:32:03;;;;;;;23.13;11.13;;;;;;;7.28;56.64;97683.41;5042293;28;20064;-61
2022/03/16 08:34:30;;;;;;;31.25;13.02;;;;;;;7.49;55.68;97682.28;5043639;28;20566;-56
2022/03/16 08:37:00;;;;;;;26.20;11.30;;;;;;;7.55;54.64;97689.25;5041272;28;20049;-64
2022/03/16 08:39:28;;;;;;;22.02;11.27;;;;;;;7.40;54.21;97647.66;5043417;28;20076;-59
2022/03/16 08:41:55;;;;;;;22.50;12.95;;;;;;;7.47;54.81;97676.31;5020058;28;20053;-61
2022/03/16 08:44:24;;;;;;;26.05;12.93;;;;;;;7.22;55.73;97679.22;5043521;28;20045;-54
2022/03/16 08:46:52;;;;;;;24.65;11.85;;;;;;;7.66;54.60;97676.66;5043189;28;20049;-64
2022/03/16 08:49:21;;;;;;;29.70;15.07;;;;;;;5.51;53.46;97327.16;5040569;28;20504;-65
2022/03/16 08:51:48;;;;;;;34.47;15.10;;;;;;;7.76;54.64;97663.59;5041404;28;20057;-56
2022/03/16 08:54:14;;;;;;;40.13;18.35;;;;;;;7.90;53.99;97637.38;5042860;28;20402;-62
2022/03/16 08:56:41;;;;;;;46.70;22.58;;;;;;;8.08;54.38;97671.13;5041619;28;20821;-67
2022/03/16 08:59:08;;;;;;;72.63;26.52;;;;;;;8.36;54.22;97658.38;5042775;28;20063;-62
2022/03/16 09:01:34;;;;;;;24.98;14.05;;;;;;;7.64;56.30;97670.66;5043217;28;20060;-67
2022/03/16 09:04:02;;;;;;;30.08;14.27;;;;;;;7.61;57.61;97660.31;5042031;28;20403;-57
2022/03/16 09:06:31;;;;;;;24.25;12.32;;;;;;;8.15;56.15;97682.41;5042689;28;20423;-55
2022/03/16 09:08:58;;;;;;;23.83;12.05;;;;;;;8.27;54.52;97649.34;5043012;28;20503;-55
2022/03/16 09:11:25;;;;;;;23.20;10.80;;;;;;;6.37;53.99;97382.47;5042252;28;20049;-64
2022/03/16 09:13:51;;;;;;;22.73;11.80;;;;;;;8.21;54.38;97657.03;5040854;28;20045;-64
2022/03/16 09:16:18;;;;;;;22.50;11.48;;;;;;;7.74;54.42;97582.00;5042250;28;20543;-63
2022/03/16 09:18:47;;;;;;;26.08;12.93;;;;;;;8.26;54.22;97581.50;5041263;28;20176;-66
2022/03/16 09:21:14;;;;;;;26.67;13.38;;;;;;;8.86;53.58;97606.41;5040784;28;20895;-55
2022/03/16 09:23:41;;;;;;;33.03;17.55;;;;;;;9.34;53.20;97634.03;5040179;28;20543;-62
2022/03/16 09:26:08;;;;;;;28.60;14.23;;;;;;;9.59;51.40;97635.59;5042320;28;20052;-57
2022/03/16 09:28:34;;;;;;;33.60;16.95;;;;;;;9.71;50.97;97638.31;5042044;28;20049;-58
2022/03/16 09:31:01;;;;;;;25.85;12.95;;;;;;;9.86;50.29;97622.94;5042465;28;20063;-56
2022/03/16 09:33:30;;;;;;;21.35;11.95;;;;;;;9.96;49.19;97622.44;5041195;28;20057;-56
2022/03/16 09:35:57;;;;;;;21.50;12.52;;;;;;;8.24;48.94;97374.88;5041299;28;20061;-60
2022/03/16 09:38:24;;;;;;;29.58;13.75;;;;;;;9.57;49.22;97629.59;5041274;28;20051;-61
2022/03/16 09:40:56;;;;;;;39.60;15.90;;;;;;;9.63;48.77;97630.97;5042395;28;20053;-65
2022/03/16 09:43:26;;;;;;;37.67;14.32;;;;;;;9.11;47.87;97581.19;5040899;28;20063;-63
2022/03/16 09:46:04;;;;;;;36.22;14.32;;;;;;;9.09;48.52;97579.91;5043230;28;20260;-63
2022/03/16 09:48:32;;;;;;;26.90;12.18;;;;;;;8.00;50.40;97583.72;5040717;28;20045;-61
2022/03/16 09:50:59;;;;;;;38.70;14.07;;;;;;;8.70;51.68;97630.34;5042281;28;20529;-61
2022/03/16 09:53:26;;;;;;;30.10;13.80;;;;;;;8.46;52.02;97624.78;5043256;28;20056;-61
2022/03/16 09:55:57;;;;;;;25.10;12.07;;;;;;;7.56;53.99;97575.06;5041265;28;20049;-62
2022/03/16 09:58:23;;;;;;;34.58;14.15;;;;;;;7.77;55.10;97630.19;5042468;28;20483;-62
2022/03/16 10:00:53;;;;;;;26.88;12.50;;;;;;;7.48;53.95;97550.31;5043255;28;20060;-58
2022/03/16 10:03:28;;;;;;;23.23;10.88;;;;;;;7.68;53.55;97566.03;5041694;28;20044;-55
2022/03/16 10:05:57;;;;;;;27.60;11.40;;;;;;;8.26;53.34;97614.63;5042608;28;20595;-61
2022/03/16 10:08:31;;;;;;;16.83;10.60;;;;;;;8.41;53.03;97616.75;5041129;28;20504;-56
2022/03/16 10:14:14;;;;;;;19.45;10.75;;;;;;;8.74;51.60;97611.97;5042335;28;20061;-58
2022/03/16 10:19:51;;;;;;;26.65;12.63;;;;;;;9.08;50.42;97601.25;5042971;28;20149;-61
2022/03/16 10:22:30;;;;;;;21.95;11.73;;;;;;;8.23;50.90;97482.84;5042219;28;20044;-61
2022/03/16 10:25:05;;;;;;;25.38;12.55;;;;;;;8.14;52.55;97606.31;5042791;28;20472;-62
2022/03/16 10:27:38;;;;;;;23.38;11.23;;;;;;;8.09;53.03;97606.50;5023757;28;20494;-57
2022/03/16 10:30:07;;;;;;;23.35;12.02;;;;;;;8.30;52.19;97604.53;5021009;28;20046;-60
2022/03/16 10:32:40;;;;;;;21.65;11.48;;;;;;;7.66;53.85;97601.41;5058872;28;20075;-60
2022/03/16 10:35:07;;;;;;;21.60;11.02;;;;;;;6.86;54.56;97525.53;5038966;28;20048;-62
2022/03/16 10:37:36;;;;;;;21.35;10.52;;;;;;;7.47;53.67;97581.78;5042140;28;20071;-61
2022/03/16 10:40:17;;;;;;;19.55;8.15;;;;;;;6.72;52.79;97511.22;5041158;28;20080;-59
2022/03/16 10:48:19;;;;;;;19.35;9.32;;;;;;;8.47;51.11;97587.75;5042177;28;20049;-58
2022/03/16 10:50:49;;;;;;;20.65;9.93;;;;;;;8.43;51.31;97582.13;5041613;28;20479;-60
2022/03/16 10:53:18;;;;;;;14.45;8.57;;;;;;;8.65;50.64;97562.34;5042756;28;20059;-58
2022/03/16 10:55:46;;;;;;;21.90;11.40;;;;;;;8.97;50.70;97579.94;5043814;28;20339;-56
2022/03/16 10:58:14;;;;;;;20.80;11.15;;;;;;;9.20;50.03;97583.81;5043533;28;20667;-62
2022/03/16 11:00:42;;;;;;;21.52;10.65;;;;;;;9.37;49.20;97575.28;5027555;28;20060;-61
2022/03/16 11:03:15;;;;;;;46.53;15.40;;;;;;;9.17;49.07;97507.13;5044544;28;20140;-56
2022/03/16 11:05:44;;;;;;;20.70;11.60;;;;;;;9.75;48.78;97572.84;5045085;28;20578;-56
2022/03/16 11:08:11;;;;;;;19.80;11.95;;;;;;;9.51;48.38;97509.31;5044240;28;20104;-57
2022/03/16 11:10:40;;;;;;;21.20;11.93;;;;;;;8.28;48.33;97267.38;5045812;28;20045;-56
2022/03/16 11:15:55;;;;;;;27.20;14.35;;;;;;;10.04;47.28;97480.31;5045096;28;20090;-59
2022/03/16 11:18:26;;;;;;;26.58;12.93;;;;;;;10.79;46.32;97556.66;5043244;28;20262;-56
2022/03/16 11:20:56;;;;;;;21.00;11.57;;;;;;;10.39;45.28;97479.28;5042127;28;20162;-63
2022/03/16 11:26:49;;;;;;;27.58;14.18;;;;;;;10.63;45.87;97545.59;5044366;28;20052;-63
2022/03/16 11:29:39;;;;;;;17.55;10.23;;;;;;;10.59;45.15;97553.00;5039752;28;20067;-55
2022/03/16 11:32:13;;;;;;;21.33;11.90;;;;;;;10.27;45.28;97548.63;5044619;28;20065;-64
2022/03/16 11:34:47;;;;;;;23.20;12.93;;;;;;;9.76;45.96;97466.56;5044027;28;20423;-56
2022/03/16 11:37:14;;;;;;;22.10;13.07;;;;;;;9.69;46.30;97458.06;5044064;28;20147;-64
2022/03/16 11:39:47;;;;;;;27.52;14.02;;;;;;;9.56;45.99;97500.78;5039877;28;20059;-56
2022/03/16 11:42:18;;;;;;;23.42;11.32;;;;;;;9.46;46.82;97486.63;5041734;28;20152;-69
2022/03/16 11:44:46;;;;;;;20.98;11.43;;;;;;;9.18;46.77;97457.03;5042414;28;20063;-60
2022/03/16 11:47:22;;;;;;;24.20;10.07;;;;;;;8.71;49.27;97521.50;5044470;28;20045;-63